Terminal Aerodrome Forecast
Issued by NWS

Home | Current Version | Previous Version | Text Only | Print | Product List | Glossary Off
Versions: 1 2 3 4 5 6 7 8 9 10 11 12 13 14 15 16 17 18 19 20 21

299
FTUS43 KABR 110533
TAFATY
TAF
KATY 110533Z 1106/1206 VRB05KT P6SM OVC015
     FM111700 13007KT 3SM -SN BKN015 OVC035
     FM120200 35008KT P6SM OVC015
     FM120500 34011KT P6SM OVC025=

USA.gov is the U.S. government's official web portal to all federal, state and local government web resources and services.